North Olmsted, Ohio
Current Conditions -  °F | °C
As of 10:51 PM on Tuesday 21 Oct 2014 (Local Time) from KCLE Reporting Station
Light Rain Light Rain  
Wind Chill: 41°   Ceiling: 1600
Heat Index: 47°   Visibility: 9mi
Dew Point: 44°   Wind: 13mph
Humidity: 90%   Direction: 10°N
Pressure: 30.14"   Gusts: NA
Location:  41.41°N, 81.92°W
Report Text: KCLE 220251Z 01011KT 9SM -RA OVC016 08/07 A3014 RMK AO2 SLP210 P0002 60007 T00830067 51019 $
Loading
Personal Weather Stations






























Interactive Weather Map
Tropical Storm Tracking
New forecast layout! Learn more

10-Day Weather Forecast

Advertisements
Track Severe Weather on mobile